Time;durP1;ratioP1;P1;durP2;ratioP2;P2;SDS_P1;SDS_P2;PMS_P1;PMS_P2;Temp;Humidity;BMP_temperature;BMP_pressure;BME280_temperature;BME280_humidity;BME280_pressure;Samples;Min_cycle;Max_cycle;Signal;HPM_P1;HPM_P2
2023/05/19 00:02:04;;;;;;;13.73;12.73;;;;;;;11.06;100.00;93048.06;5069503;28;20194;-70
2023/05/19 00:04:30;;;;;;;12.07;11.23;;;;;;;10.94;100.00;93050.22;5064166;28;20206;-70
2023/05/19 00:06:58;;;;;;;11.30;10.70;;;;;;;10.92;100.00;93047.09;5070673;28;20190;-69
2023/05/19 00:09:23;;;;;;;12.07;11.30;;;;;;;11.02;100.00;93042.59;5070608;28;20185;-74
2023/05/19 00:11:49;;;;;;;12.13;11.23;;;;;;;10.91;100.00;93046.31;5071018;28;20190;-73
2023/05/19 00:14:15;;;;;;;11.90;10.87;;;;;;;10.95;100.00;93049.94;5071626;28;20190;-73
2023/05/19 00:16:41;;;;;;;12.00;11.10;;;;;;;10.77;100.00;93037.50;5056029;28;20214;-73
2023/05/19 00:19:11;;;;;;;12.60;11.50;;;;;;;10.80;100.00;93042.16;5071506;28;20189;-73
2023/05/19 00:21:37;;;;;;;12.30;11.40;;;;;;;10.97;100.00;93026.94;5070541;28;20226;-72
2023/05/19 00:24:03;;;;;;;12.23;11.37;;;;;;;10.98;100.00;93033.75;5070860;28;20236;-72
2023/05/19 00:26:28;;;;;;;12.63;11.93;;;;;;;10.83;100.00;93015.50;5070492;28;20225;-73
2023/05/19 00:28:54;;;;;;;12.33;11.43;;;;;;;10.84;100.00;93017.09;5070999;28;20193;-73
2023/05/19 00:31:19;;;;;;;12.20;11.40;;;;;;;10.86;100.00;93020.19;5061646;28;20255;-73
2023/05/19 00:33:45;;;;;;;12.57;11.77;;;;;;;10.79;100.00;93024.94;5070991;28;20179;-73
2023/05/19 00:36:10;;;;;;;12.77;11.80;;;;;;;10.97;100.00;93018.34;5070119;28;20229;-73
2023/05/19 00:38:36;;;;;;;12.50;11.60;;;;;;;11.12;100.00;93028.69;5070656;28;20189;-73
2023/05/19 00:41:03;;;;;;;13.37;12.37;;;;;;;11.12;100.00;93029.47;5058042;28;20216;-73
2023/05/19 00:43:29;;;;;;;13.03;12.03;;;;;;;11.12;100.00;93039.94;5070917;28;20220;-73
2023/05/19 00:45:55;;;;;;;12.53;11.63;;;;;;;11.06;100.00;93020.09;5070746;28;20213;-72
2023/05/19 00:48:21;;;;;;;12.80;11.90;;;;;;;11.08;100.00;93017.97;5070691;28;20235;-73
2023/05/19 00:50:48;;;;;;;13.23;12.33;;;;;;;11.08;100.00;93019.84;5069863;28;20224;-73
2023/05/19 00:53:13;;;;;;;11.97;11.07;;;;;;;10.92;100.00;93020.97;5070804;28;20237;-73
2023/05/19 00:55:39;;;;;;;12.20;11.20;;;;;;;10.80;100.00;93018.66;5070404;28;20221;-73
2023/05/19 00:58:08;;;;;;;11.70;11.00;;;;;;;10.72;100.00;92998.34;5070743;28;20216;-73
2023/05/19 01:00:33;;;;;;;11.73;10.90;;;;;;;11.08;100.00;93020.59;5069744;28;20224;-73
2023/05/19 01:02:59;;;;;;;13.60;11.37;;;;;;;11.17;100.00;93018.19;5067619;28;20205;-73
2023/05/19 01:05:25;;;;;;;12.30;11.23;;;;;;;11.14;100.00;93019.50;5069889;28;20753;-73
2023/05/19 01:07:52;;;;;;;12.37;11.37;;;;;;;11.00;100.00;93018.56;5069713;28;20198;-73
2023/05/19 01:10:19;;;;;;;13.17;12.37;;;;;;;11.02;100.00;93020.91;5069737;28;20313;-73
2023/05/19 01:12:45;;;;;;;12.20;11.30;;;;;;;11.04;100.00;93022.19;5069986;28;20184;-73
2023/05/19 01:15:12;;;;;;;12.53;11.63;;;;;;;11.11;100.00;93014.81;5056873;28;20278;-73
2023/05/19 01:17:54;;;;;;;11.93;11.20;;;;;;;11.11;100.00;93014.81;5070147;28;20186;-73
2023/05/19 01:20:38;;;;;;;12.70;11.90;;;;;;;11.01;100.00;93027.19;5076672;28;20227;-73
2023/05/19 01:23:50;;;;;;;11.43;10.63;;;;;;;10.64;100.00;93026.84;5089203;28;20246;-73
2023/05/19 01:26:31;;;;;;;11.73;10.93;;;;;;;10.59;100.00;93022.44;5078381;28;20224;-72
2023/05/19 01:29:34;;;;;;;14.00;13.00;;;;;;;10.48;100.00;93013.09;5071309;28;20207;-73
2023/05/19 01:32:02;;;;;;;12.97;11.87;;;;;;;10.50;100.00;93026.66;5084933;28;20210;-73
2023/05/19 01:34:29;;;;;;;13.60;12.70;;;;;;;10.34;100.00;93006.88;5088666;28;20810;-73
2023/05/19 01:36:57;;;;;;;12.87;11.83;;;;;;;10.41;100.00;93012.56;5088510;28;20219;-72
2023/05/19 01:39:24;;;;;;;14.13;12.87;;;;;;;10.30;100.00;93011.09;5088351;28;20201;-73
2023/05/19 01:41:51;;;;;;;14.17;13.07;;;;;;;10.30;100.00;93003.25;5088952;28;20186;-73
2023/05/19 01:44:17;;;;;;;13.07;11.97;;;;;;;10.15;100.00;93002.53;5089093;28;20205;-73
2023/05/19 01:46:43;;;;;;;13.77;12.67;;;;;;;10.25;100.00;93016.31;5089615;28;20221;-73
2023/05/19 01:49:09;;;;;;;14.53;13.43;;;;;;;10.30;100.00;93015.50;5089530;28;20208;-73
2023/05/19 01:51:35;;;;;;;13.77;12.83;;;;;;;10.13;100.00;92994.97;5089421;28;20221;-73
2023/05/19 01:54:00;;;;;;;13.53;12.43;;;;;;;10.40;100.00;93020.69;5089483;28;20188;-73
2023/05/19 01:56:40;;;;;;;14.23;13.13;;;;;;;10.40;100.00;93020.69;5088713;28;20644;-72
2023/05/19 01:59:19;;;;;;;14.57;13.40;;;;;;;10.19;100.00;93009.53;5089127;28;20181;-73
2023/05/19 02:01:51;;;;;;;14.40;13.27;;;;;;;10.46;100.00;93030.84;5088627;28;20250;-73
2023/05/19 02:04:42;;;;;;;13.60;12.60;;;;;;;10.42;100.00;93029.81;5089411;28;20225;-73
2023/05/19 02:07:25;;;;;;;13.93;13.03;;;;;;;10.41;100.00;93030.84;5089171;28;20228;-73
2023/05/19 02:10:02;;;;;;;14.80;13.63;;;;;;;10.38;100.00;93025.41;5071253;28;20228;-73
2023/05/19 02:12:33;;;;;;;13.57;12.57;;;;;;;10.62;100.00;93023.72;5071552;28;20193;-73
2023/05/19 02:15:09;;;;;;;14.03;12.80;;;;;;;10.62;100.00;93024.50;5088224;28;20233;-73
2023/05/19 02:17:40;;;;;;;14.00;12.63;;;;;;;10.75;100.00;93030.97;5089493;28;20208;-73
2023/05/19 02:20:08;;;;;;;13.73;12.60;;;;;;;10.64;100.00;93027.66;5088684;28;20284;-73
2023/05/19 02:22:33;;;;;;;13.43;12.53;;;;;;;10.53;100.00;93020.13;5089739;28;20184;-73
2023/05/19 02:24:59;;;;;;;14.77;13.57;;;;;;;10.50;100.00;93026.66;5088469;28;20221;-73
2023/05/19 02:27:25;;;;;;;14.13;12.90;;;;;;;10.38;100.00;93023.56;5089805;28;20188;-73
2023/05/19 02:29:50;;;;;;;15.93;14.53;;;;;;;10.25;100.00;93024.13;5088431;28;20292;-73
2023/05/19 02:32:16;;;;;;;16.07;14.70;;;;;;;10.33;100.00;93030.63;5088364;28;20184;-72
2023/05/19 02:34:44;;;;;;;16.30;14.93;;;;;;;10.11;100.00;93033.56;5087827;28;20213;-73
2023/05/19 02:37:14;;;;;;;16.03;14.63;;;;;;;10.15;100.00;93036.44;5088254;28;20217;-73
2023/05/19 02:39:40;;;;;;;16.53;15.23;;;;;;;10.22;100.00;93029.88;5088059;28;20185;-72
2023/05/19 02:42:05;;;;;;;14.63;13.57;;;;;;;10.19;100.00;93037.47;5088549;28;20182;-73
2023/05/19 02:44:31;;;;;;;15.00;13.67;;;;;;;10.25;100.00;93028.56;5087912;28;20213;-73
2023/05/19 02:46:56;;;;;;;16.33;14.83;;;;;;;10.02;100.00;93035.13;5089712;28;20236;-73
2023/05/19 02:49:21;;;;;;;16.30;14.60;;;;;;;10.00;100.00;93016.34;5088733;28;20181;-73
2023/05/19 02:51:47;;;;;;;15.73;14.37;;;;;;;10.22;100.00;93032.50;5071371;28;20252;-71
2023/05/19 02:54:12;;;;;;;15.23;14.03;;;;;;;10.27;100.00;93026.47;5089123;28;20182;-73
2023/05/19 02:56:37;;;;;;;15.50;14.00;;;;;;;10.04;100.00;93034.88;5088464;28;20224;-73
2023/05/19 02:59:03;;;;;;;15.23;13.70;;;;;;;9.97;100.00;93029.13;5088592;28;20200;-73
2023/05/19 03:01:28;;;;;;;15.87;13.47;;;;;;;10.10;100.00;93042.41;5091565;28;20213;-72
2023/05/19 03:03:54;;;;;;;15.13;13.80;;;;;;;10.09;100.00;93038.25;5092453;28;20205;-72
2023/05/19 03:06:22;;;;;;;15.17;13.97;;;;;;;10.06;100.00;93032.75;5092541;28;20237;-73
2023/05/19 03:08:47;;;;;;;15.60;14.40;;;;;;;9.89;100.00;93038.28;5093093;28;20207;-73
2023/05/19 03:11:14;;;;;;;15.80;14.30;;;;;;;10.06;100.00;93038.75;5091910;28;20279;-73
2023/05/19 03:13:39;;;;;;;15.00;13.67;;;;;;;10.00;100.00;93032.00;5092639;28;20239;-73
2023/05/19 03:16:06;;;;;;;15.13;13.93;;;;;;;10.04;100.00;93045.28;5092537;28;20225;-73
2023/05/19 03:18:32;;;;;;;14.97;13.63;;;;;;;10.02;100.00;93045.56;5092679;28;20196;-70
2023/05/19 03:20:58;;;;;;;14.60;13.40;;;;;;;10.12;100.00;93023.91;5091877;28;20234;-73
2023/05/19 03:23:23;;;;;;;15.00;13.70;;;;;;;10.37;100.00;93034.25;5092264;28;20208;-73
2023/05/19 03:25:49;;;;;;;14.73;13.63;;;;;;;10.75;100.00;93038.81;5091763;28;20243;-72
2023/05/19 03:28:16;;;;;;;14.47;13.27;;;;;;;10.75;100.00;93054.50;5092351;28;20212;-73
2023/05/19 03:30:41;;;;;;;15.60;14.10;;;;;;;10.82;100.00;93049.75;5091797;28;20212;-73
2023/05/19 03:33:06;;;;;;;17.90;16.17;;;;;;;10.65;100.00;93037.03;5092055;28;20199;-73
2023/05/19 03:35:32;;;;;;;16.87;15.30;;;;;;;10.44;100.00;93043.41;5092006;28;20228;-73
2023/05/19 03:37:57;;;;;;;18.50;16.77;;;;;;;10.51;100.00;93038.66;5073998;28;20195;-73
2023/05/19 03:40:22;;;;;;;16.53;15.07;;;;;;;11.04;100.00;93043.09;5091395;28;20242;-73
2023/05/19 03:42:49;;;;;;;14.83;13.53;;;;;;;11.03;100.00;93052.00;5091613;28;20223;-73
2023/05/19 03:45:15;;;;;;;15.77;14.13;;;;;;;11.23;100.00;93051.88;5091762;28;20243;-68
2023/05/19 03:47:40;;;;;;;16.03;14.30;;;;;;;11.53;100.00;93050.09;5092051;28;20205;-69
2023/05/19 03:50:06;;;;;;;15.07;13.73;;;;;;;11.80;100.00;93059.06;5091081;28;20252;-67
2023/05/19 03:52:32;;;;;;;15.97;14.57;;;;;;;11.76;100.00;93054.66;5091440;28;20185;-67
2023/05/19 03:54:57;;;;;;;15.10;13.77;;;;;;;11.79;100.00;93064.56;5091485;28;20265;-69
2023/05/19 03:57:23;;;;;;;14.60;13.33;;;;;;;11.85;100.00;93045.94;5091602;28;20183;-70
2023/05/19 03:59:48;;;;;;;15.47;14.10;;;;;;;11.72;100.00;93024.88;5091233;28;20601;-67
2023/05/19 04:02:14;;;;;;;16.40;14.80;;;;;;;12.01;100.00;93052.59;5091179;28;20508;-68
2023/05/19 04:04:39;;;;;;;13.90;12.50;;;;;;;12.10;100.00;93071.09;5073123;28;20231;-69
2023/05/19 04:07:06;;;;;;;15.20;14.10;;;;;;;12.19;100.00;93070.22;5091192;28;21280;-69
2023/05/19 04:09:33;;;;;;;15.73;14.37;;;;;;;11.68;100.00;93063.09;5091237;28;20702;-69
2023/05/19 04:12:00;;;;;;;14.83;13.63;;;;;;;12.11;100.00;93068.19;5089958;28;20946;-69
2023/05/19 04:14:25;;;;;;;16.10;14.60;;;;;;;12.10;100.00;93076.31;5080405;28;20188;-66
2023/05/19 04:16:51;;;;;;;16.30;14.47;;;;;;;12.12;100.00;93074.22;5086292;28;20199;-69
2023/05/19 04:19:16;;;;;;;17.67;16.08;;;;;;;12.46;100.00;93074.94;5089398;28;20434;-68
2023/05/19 04:21:41;;;;;;;17.97;16.13;;;;;;;12.52;100.00;93079.06;5089760;28;20224;-67
2023/05/19 04:24:07;;;;;;;17.17;15.57;;;;;;;12.21;100.00;93049.00;5089996;28;20264;-70
2023/05/19 04:26:33;;;;;;;14.93;13.53;;;;;;;12.77;100.00;93081.41;5089465;28;20248;-68
2023/05/19 04:28:59;;;;;;;16.47;14.97;;;;;;;12.78;100.00;93082.94;5089940;28;20304;-69
2023/05/19 04:31:26;;;;;;;17.07;15.43;;;;;;;12.92;100.00;93084.63;5089620;28;20217;-67
2023/05/19 04:33:52;;;;;;;15.27;13.87;;;;;;;13.10;100.00;93080.50;5089792;28;20192;-72
2023/05/19 04:36:20;;;;;;;15.50;14.20;;;;;;;13.16;100.00;93078.59;5090331;28;20298;-71
2023/05/19 04:38:45;;;;;;;17.93;16.37;;;;;;;13.63;99.04;93100.22;5089520;28;20213;-71
2023/05/19 04:41:11;;;;;;;15.63;14.13;;;;;;;13.28;98.61;93092.03;5090183;28;20227;-71
2023/05/19 04:43:43;;;;;;;17.07;15.43;;;;;;;13.48;97.53;93102.28;5090696;28;20242;-71
2023/05/19 04:46:12;;;;;;;15.00;13.70;;;;;;;13.23;99.16;93098.13;5090481;28;20244;-71
2023/05/19 04:48:41;;;;;;;16.10;14.60;;;;;;;13.61;97.93;93104.19;5090656;28;20256;-71
2023/05/19 04:51:07;;;;;;;15.40;14.00;;;;;;;14.07;95.88;93099.81;5089568;28;20998;-71
2023/05/19 04:53:32;;;;;;;15.73;14.20;;;;;;;14.37;91.82;93105.38;5090629;28;20192;-71
2023/05/19 04:55:59;;;;;;;15.50;14.10;;;;;;;14.38;90.03;93101.66;5090287;28;20232;-70
2023/05/19 04:58:26;;;;;;;15.40;14.00;;;;;;;15.48;87.25;93109.28;5090189;28;20172;-71
2023/05/19 05:00:54;;;;;;;15.20;13.90;;;;;;;16.74;81.56;93119.50;5088678;28;20217;-71
2023/05/19 05:03:21;;;;;;;15.40;13.90;;;;;;;16.30;81.50;93120.31;5089141;28;20202;-72
2023/05/19 05:05:47;;;;;;;16.27;14.40;;;;;;;14.96;83.97;93106.41;5088649;28;20614;-71
2023/05/19 05:08:14;;;;;;;16.77;15.10;;;;;;;15.68;84.55;93115.97;5089069;28;20231;-71
2023/05/19 05:10:40;;;;;;;15.97;14.40;;;;;;;15.47;86.28;93097.19;5088429;28;20217;-71
2023/05/19 05:13:05;;;;;;;14.70;13.33;;;;;;;15.15;87.05;93109.69;5089326;28;20208;-72
2023/05/19 05:15:31;;;;;;;15.00;13.60;;;;;;;15.40;86.35;93111.84;5090034;28;20231;-72
2023/05/19 05:17:57;;;;;;;14.17;12.83;;;;;;;15.30;83.78;93112.78;5090308;28;20271;-71
2023/05/19 05:20:22;;;;;;;15.40;13.33;;;;;;;16.81;80.63;93114.59;5090228;28;20219;-72
2023/05/19 05:22:48;;;;;;;14.40;13.30;;;;;;;17.50;74.53;93119.78;5071942;28;20216;-72
2023/05/19 05:25:15;;;;;;;14.73;13.37;;;;;;;16.32;79.66;93104.97;5089263;28;20240;-71
2023/05/19 05:27:40;;;;;;;13.63;12.30;;;;;;;17.52;74.61;93122.91;5090510;28;20171;-71
2023/05/19 05:30:07;;;;;;;14.50;12.17;;;;;;;17.75;73.00;93128.03;5089293;28;20236;-72
2023/05/19 05:32:33;;;;;;;13.40;12.40;;;;;;;17.90;75.31;93119.69;5090316;28;20196;-72
2023/05/19 05:34:58;;;;;;;15.33;13.67;;;;;;;17.64;76.46;93119.66;5089001;28;20762;-71
2023/05/19 05:37:24;;;;;;;13.63;12.33;;;;;;;17.78;75.46;93122.16;5068911;28;20190;-72
2023/05/19 05:39:49;;;;;;;14.10;13.00;;;;;;;18.62;72.60;93136.44;5089028;28;20226;-71
2023/05/19 05:42:15;;;;;;;14.13;12.93;;;;;;;19.38;68.52;93134.66;5089804;28;20192;-71
2023/05/19 05:44:40;;;;;;;14.27;12.80;;;;;;;19.86;66.48;93125.16;5083981;28;20237;-70
2023/05/19 05:47:06;;;;;;;13.57;12.47;;;;;;;21.14;61.28;93145.25;5088559;28;20207;-69
2023/05/19 05:49:35;;;;;;;12.87;11.67;;;;;;;25.01;49.02;93140.88;5086805;28;20196;-71
2023/05/19 05:52:02;;;;;;;13.38;12.07;;;;;;;27.24;43.01;93140.25;5087348;28;20176;-70
2023/05/19 05:54:28;;;;;;;12.05;11.15;;;;;;;27.40;40.92;93143.50;5086525;28;20191;-69
2023/05/19 05:56:53;;;;;;;12.90;11.65;;;;;;;28.59;39.00;93144.41;5085753;28;20214;-70
2023/05/19 05:59:19;;;;;;;11.55;10.48;;;;;;;28.68;38.02;93144.03;5088773;28;20803;-71
2023/05/19 06:01:44;;;;;;;13.40;12.02;;;;;;;28.16;38.81;93153.31;5088119;28;20219;-70
2023/05/19 06:04:10;;;;;;;12.77;11.50;;;;;;;28.31;38.92;93154.19;5088517;28;20248;-70
2023/05/19 06:06:36;;;;;;;12.10;10.98;;;;;;;30.51;35.43;93163.88;5088557;28;20229;-70
2023/05/19 06:09:02;;;;;;;11.02;10.13;;;;;;;30.75;33.00;93160.38;5086886;28;20181;-70
2023/05/19 06:11:28;;;;;;;11.02;10.10;;;;;;;29.03;35.19;93166.44;5087272;28;20225;-70
2023/05/19 06:13:53;;;;;;;10.77;9.88;;;;;;;26.54;38.41;93151.69;5088264;28;20185;-71
2023/05/19 06:16:19;;;;;;;10.80;9.95;;;;;;;27.16;38.16;93154.75;5088951;28;20228;-70
2023/05/19 06:18:44;;;;;;;11.07;9.98;;;;;;;28.61;36.09;93142.06;5088285;28;20193;-70
2023/05/19 06:21:12;;;;;;;11.55;10.48;;;;;;;28.91;36.41;93166.00;5103490;28;20229;-74
2023/05/19 06:23:38;;;;;;;11.13;10.23;;;;;;;28.59;36.68;93160.53;5087973;28;20215;-71
2023/05/19 06:26:03;;;;;;;11.90;10.77;;;;;;;30.10;33.25;93165.47;5087727;28;20227;-70
2023/05/19 06:28:28;;;;;;;10.95;10.02;;;;;;;29.84;33.45;93163.94;5088369;28;20196;-71
2023/05/19 06:30:54;;;;;;;11.75;10.75;;;;;;;28.86;35.08;93164.47;5087366;28;20824;-70
2023/05/19 06:33:19;;;;;;;10.50;9.50;;;;;;;29.59;32.55;93168.50;5088763;28;20203;-70
2023/05/19 06:35:45;;;;;;;10.50;9.73;;;;;;;26.54;39.11;93154.38;5089244;28;20225;-73
2023/05/19 06:38:10;;;;;;;10.88;10.00;;;;;;;24.32;42.67;93142.91;5074783;28;20215;-71
2023/05/19 06:40:35;;;;;;;11.60;10.70;;;;;;;20.91;55.82;93132.69;5071885;28;20240;-71
2023/05/19 06:43:01;;;;;;;12.10;11.02;;;;;;;20.64;55.98;93131.41;5091974;28;20219;-70
2023/05/19 06:45:27;;;;;;;11.77;10.88;;;;;;;19.87;56.84;93131.25;5092030;28;20247;-70
2023/05/19 06:47:53;;;;;;;12.20;11.20;;;;;;;18.94;60.52;93138.53;5092401;28;20209;-70
2023/05/19 06:50:18;;;;;;;12.80;11.70;;;;;;;17.69;66.81;93129.28;5091142;28;20225;-71
2023/05/19 06:52:45;;;;;;;12.40;11.30;;;;;;;18.09;64.20;93134.13;5091989;28;20199;-71
2023/05/19 06:55:11;;;;;;;12.33;11.43;;;;;;;18.01;64.58;93131.50;5073489;28;20215;-70
2023/05/19 06:57:37;;;;;;;14.37;12.93;;;;;;;16.29;70.29;93137.22;5091569;28;20190;-70
2023/05/19 07:00:03;;;;;;;13.33;12.17;;;;;;;16.65;69.70;93137.13;5091263;28;20242;-71
2023/05/19 07:02:28;;;;;;;12.90;11.60;;;;;;;16.90;73.30;93139.13;5092022;28;20201;-71
2023/05/19 07:04:53;;;;;;;12.37;11.53;;;;;;;16.22;71.45;93149.25;5091413;28;20225;-70
2023/05/19 07:07:19;;;;;;;13.10;12.03;;;;;;;16.60;73.50;93145.97;5091838;28;20191;-69
2023/05/19 07:09:45;;;;;;;12.93;11.73;;;;;;;17.09;73.20;93132.53;5073187;28;20225;-70
2023/05/19 07:12:10;;;;;;;12.27;11.17;;;;;;;17.37;68.98;93133.84;5090773;28;20200;-70
2023/05/19 07:14:37;;;;;;;13.57;12.37;;;;;;;16.99;69.91;93142.56;5091128;28;20193;-71
2023/05/19 07:17:03;;;;;;;13.47;12.40;;;;;;;17.51;72.01;93153.03;5092332;28;20223;-70
2023/05/19 07:19:28;;;;;;;12.97;11.77;;;;;;;18.30;68.21;93144.84;5090965;28;20201;-70
2023/05/19 07:21:55;;;;;;;13.00;11.77;;;;;;;18.46;69.11;93149.38;5091463;28;20239;-71
2023/05/19 07:24:21;;;;;;;13.63;12.23;;;;;;;17.23;71.07;93151.66;5091699;28;20205;-71
2023/05/19 07:26:46;;;;;;;13.07;12.17;;;;;;;17.84;68.97;93145.47;5074371;28;20189;-70
2023/05/19 07:29:12;;;;;;;13.60;12.27;;;;;;;18.15;66.34;93153.28;5092348;28;20183;-69
2023/05/19 07:31:37;;;;;;;13.17;12.00;;;;;;;18.01;68.77;93147.34;5091912;28;20218;-70
2023/05/19 07:34:03;;;;;;;14.10;12.80;;;;;;;18.94;63.78;93165.00;5092234;28;20194;-70
2023/05/19 07:36:28;;;;;;;13.40;12.10;;;;;;;19.28;63.04;93159.63;5090565;28;20250;-71
2023/05/19 07:38:54;;;;;;;14.57;13.27;;;;;;;18.77;63.61;93165.06;5091205;28;20190;-71
2023/05/19 07:41:20;;;;;;;14.53;13.33;;;;;;;18.32;68.17;93158.56;5091289;28;20224;-71
2023/05/19 07:43:46;;;;;;;15.13;13.73;;;;;;;17.33;66.06;93158.53;5074283;28;20232;-71
2023/05/19 07:46:11;;;;;;;15.20;13.67;;;;;;;18.23;63.52;93152.47;5090105;28;20230;-71
2023/05/19 07:48:36;;;;;;;13.07;11.37;;;;;;;18.77;62.09;93167.69;5091761;28;20219;-71
2023/05/19 07:51:02;;;;;;;14.03;12.63;;;;;;;18.67;62.03;93149.50;5091558;28;20225;-70
2023/05/19 07:53:27;;;;;;;15.47;13.93;;;;;;;18.09;69.65;93154.50;5091157;28;20199;-69
2023/05/19 07:55:53;;;;;;;13.53;12.23;;;;;;;18.12;73.91;93148.56;5072686;28;20280;-69
2023/05/19 07:58:19;;;;;;;14.17;12.97;;;;;;;18.40;70.79;93149.84;5091141;28;20669;-70
2023/05/19 08:00:44;;;;;;;13.53;12.40;;;;;;;18.26;64.18;93154.47;5090693;28;20246;-69
2023/05/19 08:03:10;;;;;;;15.93;14.33;;;;;;;18.27;64.53;93150.78;5073645;28;20218;-68
2023/05/19 08:05:36;;;;;;;14.10;12.90;;;;;;;18.01;66.78;93160.56;5091055;28;20222;-69
2023/05/19 08:08:02;;;;;;;15.23;13.73;;;;;;;17.81;65.10;93158.50;5091410;28;20186;-70
2023/05/19 08:10:28;;;;;;;15.03;13.20;;;;;;;17.63;65.92;93147.91;5090714;28;20249;-71
2023/05/19 08:12:53;;;;;;;14.00;12.90;;;;;;;17.40;66.39;93149.06;5087896;28;20198;-72
2023/05/19 08:15:19;;;;;;;18.27;13.80;;;;;;;17.56;69.37;93160.81;5089876;28;20858;-72
2023/05/19 08:17:45;;;;;;;14.97;13.67;;;;;;;17.38;72.42;93151.25;5089813;28;20208;-71
2023/05/19 08:20:13;;;;;;;15.50;14.10;;;;;;;17.90;68.87;93157.44;5089213;28;20296;-71
2023/05/19 08:22:39;;;;;;;16.30;14.87;;;;;;;18.03;70.54;93155.72;5089135;28;20219;-71
2023/05/19 08:25:05;;;;;;;15.27;13.77;;;;;;;18.60;70.09;93159.78;5081534;28;20317;-70
2023/05/19 08:27:31;;;;;;;15.00;13.73;;;;;;;18.91;66.00;93157.72;5090334;28;20177;-69
2023/05/19 08:29:56;;;;;;;15.60;14.30;;;;;;;18.93;62.42;93158.16;5072192;28;20304;-69
2023/05/19 08:32:22;;;;;;;15.20;13.70;;;;;;;18.43;66.35;93157.16;5089811;28;20198;-69
2023/05/19 08:34:48;;;;;;;16.27;14.40;;;;;;;18.32;65.17;93155.91;5089341;28;20225;-69
2023/05/19 08:37:13;;;;;;;16.50;14.83;;;;;;;18.37;65.34;93156.50;5089528;28;20186;-68
2023/05/19 08:39:39;;;;;;;16.07;14.20;;;;;;;18.26;64.16;93159.78;5088723;28;20201;-69
2023/05/19 08:42:06;;;;;;;16.07;14.40;;;;;;;18.25;65.77;93161.66;5089645;28;20214;-69
2023/05/19 08:44:32;;;;;;;16.73;14.63;;;;;;;18.09;69.42;93155.28;5089235;28;20236;-71
2023/05/19 08:47:04;;;;;;;17.30;15.37;;;;;;;18.59;69.79;93153.72;5089280;28;20183;-69
2023/05/19 08:49:32;;;;;;;17.67;14.53;;;;;;;18.92;67.13;93152.09;5069824;28;20225;-68
2023/05/19 08:52:08;;;;;;;17.27;15.67;;;;;;;18.71;62.72;93142.47;5090565;28;20177;-70
2023/05/19 08:54:44;;;;;;;17.03;15.30;;;;;;;18.45;62.63;93145.19;5089512;28;20186;-69
2023/05/19 08:57:10;;;;;;;16.77;15.00;;;;;;;18.66;65.81;93142.66;5089348;28;20177;-73
2023/05/19 08:59:36;;;;;;;16.23;14.37;;;;;;;19.17;67.64;93137.97;5089736;28;20186;-68
2023/05/19 09:02:02;;;;;;;17.10;15.30;;;;;;;19.61;63.83;93152.59;5090360;28;20180;-69
2023/05/19 09:04:28;;;;;;;16.50;14.90;;;;;;;19.60;64.39;93160.84;5089587;28;20211;-68
2023/05/19 09:06:54;;;;;;;16.90;15.30;;;;;;;19.91;61.70;93158.63;5090519;28;20682;-67
2023/05/19 09:09:19;;;;;;;15.67;14.07;;;;;;;19.86;62.63;93153.56;5090307;28;20223;-68
2023/05/19 09:11:45;;;;;;;21.93;15.50;;;;;;;19.68;64.08;93152.09;5089523;28;20228;-67
2023/05/19 09:14:11;;;;;;;17.63;14.30;;;;;;;19.68;64.96;93150.22;5090507;28;20179;-68
2023/05/19 09:16:37;;;;;;;17.27;14.40;;;;;;;19.42;63.74;93109.88;5090033;28;20224;-68
2023/05/19 09:19:03;;;;;;;16.33;14.33;;;;;;;19.46;63.40;93145.19;5090281;28;20202;-68
2023/05/19 09:21:29;;;;;;;15.50;14.00;;;;;;;19.13;66.56;93120.41;5073233;28;20231;-68
2023/05/19 09:23:57;;;;;;;17.17;14.97;;;;;;;19.01;66.46;93141.47;5089966;28;20253;-67
2023/05/19 09:26:22;;;;;;;16.93;15.30;;;;;;;18.94;64.74;93138.53;5089473;28;20230;-69
2023/05/19 09:28:48;;;;;;;16.80;14.27;;;;;;;18.58;63.31;93124.94;5090283;28;20184;-67
2023/05/19 09:31:13;;;;;;;17.30;14.37;;;;;;;19.73;62.79;93134.16;5089484;28;20218;-67
2023/05/19 09:33:41;;;;;;;17.30;15.60;;;;;;;19.19;67.02;93135.03;5088346;28;20266;-66
2023/05/19 09:36:07;;;;;;;19.00;14.87;;;;;;;19.44;60.83;93131.50;5088061;28;20236;-66
2023/05/19 09:38:35;;;;;;;17.10;15.30;;;;;;;19.78;62.83;93141.13;5071237;28;20218;-67
2023/05/19 09:41:00;;;;;;;16.57;14.93;;;;;;;20.09;60.68;93137.03;5088165;28;20222;-67
2023/05/19 09:43:27;;;;;;;16.70;15.07;;;;;;;20.28;58.72;93145.28;5089005;28;20235;-67
2023/05/19 09:46:00;;;;;;;19.83;15.17;;;;;;;19.71;63.51;93133.69;5087262;28;20257;-66
2023/05/19 09:48:26;;;;;;;18.75;14.82;;;;;;;19.76;60.15;93135.38;5089210;28;20180;-67
2023/05/19 09:50:53;;;;;;;19.23;16.20;;;;;;;19.88;60.50;93128.28;5088309;28;20491;-66
2023/05/19 09:53:19;;;;;;;17.33;15.57;;;;;;;19.21;64.05;93127.53;5089280;28;20206;-71
2023/05/19 09:55:45;;;;;;;16.35;14.32;;;;;;;19.93;61.87;93140.56;5089103;28;20235;-70
2023/05/19 09:58:16;;;;;;;19.57;15.30;;;;;;;19.90;57.07;93134.03;5089890;28;20183;-69
2023/05/19 10:00:42;;;;;;;16.23;14.60;;;;;;;19.74;59.38;93133.03;5089000;28;20301;-68
2023/05/19 10:03:08;;;;;;;17.37;15.13;;;;;;;19.62;61.29;93122.38;5089715;28;20236;-68
2023/05/19 10:05:34;;;;;;;15.73;14.23;;;;;;;19.67;58.61;93122.19;5087811;28;20825;-70
2023/05/19 10:08:01;;;;;;;17.43;15.03;;;;;;;19.98;57.45;93135.06;5070528;28;21669;-67
2023/05/19 10:10:28;;;;;;;15.77;14.47;;;;;;;19.99;57.39;93124.13;5088875;28;20226;-70
2023/05/19 10:12:54;;;;;;;18.00;16.17;;;;;;;19.89;58.97;93127.16;5074012;28;20188;-68
2023/05/19 10:15:19;;;;;;;16.53;14.93;;;;;;;20.04;58.89;93120.50;5092113;28;20224;-72
2023/05/19 10:17:45;;;;;;;15.40;13.90;;;;;;;19.80;60.51;93102.59;5092880;28;20258;-72
2023/05/19 10:20:15;;;;;;;16.45;14.75;;;;;;;19.72;54.90;93126.53;5090946;28;20213;-71
2023/05/19 10:22:41;;;;;;;16.00;14.50;;;;;;;19.32;59.44;93128.75;5091412;28;20172;-72
2023/05/19 10:25:08;;;;;;;19.73;15.53;;;;;;;19.19;57.85;93121.78;5090850;28;20231;-72
2023/05/19 10:27:43;;;;;;;20.23;14.20;;;;;;;19.26;58.84;93115.97;5092662;28;20200;-72
2023/05/19 10:30:15;;;;;;;17.60;14.70;;;;;;;19.22;60.33;93123.03;5092082;28;20222;-72
2023/05/19 10:32:43;;;;;;;16.37;14.87;;;;;;;19.41;61.49;93105.66;5093147;28;20213;-72
2023/05/19 10:35:41;;;;;;;16.83;15.10;;;;;;;19.30;61.28;93114.28;5084312;28;20236;-72
2023/05/19 10:38:24;;;;;;;17.57;15.00;;;;;;;19.25;60.77;93103.84;5058035;28;20198;-72
2023/05/19 10:41:45;;;;;;;17.13;15.37;;;;;;;19.46;61.77;93104.69;5085431;28;20258;-71
2023/05/19 10:44:29;;;;;;;17.27;15.43;;;;;;;20.68;59.70;93103.88;5051836;28;20228;-72
2023/05/19 10:46:54;;;;;;;17.17;15.20;;;;;;;20.79;53.74;93100.81;5071730;28;20211;-72
2023/05/19 10:49:21;;;;;;;16.40;14.90;;;;;;;20.98;52.45;93109.81;5054420;28;21042;-71
2023/05/19 10:51:47;;;;;;;14.52;13.25;;;;;;;21.10;51.45;93104.56;5072325;28;20968;-73
2023/05/19 10:54:15;;;;;;;15.90;14.20;;;;;;;20.83;51.23;93101.69;5072726;28;20219;-72
2023/05/19 10:56:45;;;;;;;14.95;13.60;;;;;;;20.32;52.91;93100.34;5092176;28;20242;-72
2023/05/19 10:59:31;;;;;;;16.20;14.53;;;;;;;20.15;54.90;93101.28;5092993;28;20199;-72
2023/05/19 11:02:01;;;;;;;17.15;14.75;;;;;;;19.84;55.97;93103.53;5072615;28;20211;-71
2023/05/19 11:04:52;;;;;;;16.13;14.68;;;;;;;19.75;55.57;93102.78;5065143;28;20268;-72
2023/05/19 11:07:23;;;;;;;15.30;13.80;;;;;;;19.55;59.34;93085.00;5072642;28;20185;-73
2023/05/19 11:09:50;;;;;;;16.70;14.87;;;;;;;19.88;59.02;93093.03;5072082;28;20303;-71
2023/05/19 11:12:20;;;;;;;15.70;14.30;;;;;;;20.01;54.92;93097.31;5072251;28;20192;-72
2023/05/19 11:14:46;;;;;;;15.93;14.40;;;;;;;20.43;55.89;93098.84;5072025;28;20224;-72
2023/05/19 11:17:14;;;;;;;15.90;14.50;;;;;;;20.79;53.03;93080.38;5072613;28;20176;-72